Time;durP1;ratioP1;P1;durP2;ratioP2;P2;SDS_P1;SDS_P2;PMS_P1;PMS_P2;Temp;Humidity;BMP_temperature;BMP_pressure;BME280_temperature;BME280_humidity;BME280_pressure;Samples;Min_cycle;Max_cycle;Signal;HPM_P1;HPM_P2
2023/06/21 00:02:19;;;;;;;12.30;10.60;;;;;;;20.58;60.34;96691.98;109023;1271;25459;-87
2023/06/21 00:04:52;;;;;;;11.80;10.60;;;;;;;20.56;60.43;96695.93;108977;1274;71492;-87
2023/06/21 00:07:25;;;;;;;11.50;10.30;;;;;;;20.52;60.38;96691.63;109078;1270;23842;-87
2023/06/21 00:09:59;;;;;;;12.10;10.80;;;;;;;20.47;60.52;96692.02;109027;1273;22515;-87
2023/06/21 00:12:30;;;;;;;13.00;10.60;;;;;;;20.44;60.72;96691.32;109043;1266;22519;-87
2023/06/21 00:15:03;;;;;;;13.70;11.00;;;;;;;20.40;60.64;96690.17;109025;1270;70909;-86
2023/06/21 00:17:36;;;;;;;12.50;11.30;;;;;;;20.32;60.84;96691.55;109084;1266;23562;-87
2023/06/21 00:20:14;;;;;;;12.00;10.80;;;;;;;20.29;60.89;96695.38;109077;1272;24210;-87
2023/06/21 00:22:46;;;;;;;12.00;10.80;;;;;;;20.23;60.91;96692.87;109144;1250;22532;-87
2023/06/21 00:25:18;;;;;;;12.10;11.00;;;;;;;20.19;61.15;96695.23;109058;1273;57288;-87
2023/06/21 00:27:50;;;;;;;12.70;10.90;;;;;;;20.12;61.16;96696.86;109082;1271;23881;-86
2023/06/21 00:30:22;;;;;;;11.50;10.30;;;;;;;19.98;61.39;96694.66;109060;1274;26496;-87
2023/06/21 00:32:54;;;;;;;10.60;9.40;;;;;;;19.91;61.77;96697.20;109049;1274;22518;-87
2023/06/21 00:35:26;;;;;;;11.20;10.10;;;;;;;19.88;62.06;96700.73;108975;1272;65016;-87
2023/06/21 00:37:58;;;;;;;11.70;10.50;;;;;;;19.87;62.19;96702.84;109112;1269;22518;-87
2023/06/21 00:40:30;;;;;;;11.70;9.70;;;;;;;19.90;62.22;96698.70;109081;1269;22513;-87
2023/06/21 00:43:03;;;;;;;11.40;10.20;;;;;;;19.96;62.14;96698.65;109075;1266;22620;-87
2023/06/21 00:45:39;;;;;;;11.50;10.40;;;;;;;20.03;62.09;96698.66;109022;1269;52398;-86
2023/06/21 00:48:11;;;;;;;10.90;9.80;;;;;;;20.12;62.07;96702.09;109075;1266;22539;-87
2023/06/21 00:50:44;;;;;;;11.80;10.00;;;;;;;20.21;61.96;96702.37;109076;1271;23015;-87
2023/06/21 00:53:16;;;;;;;11.20;9.50;;;;;;;20.29;61.83;96699.08;109059;1266;22568;-86
2023/06/21 00:55:49;;;;;;;11.50;10.30;;;;;;;20.35;61.81;96704.72;109031;1273;58959;-86
2023/06/21 00:58:21;;;;;;;11.60;10.40;;;;;;;20.40;61.70;96705.28;109082;1266;22537;-87
2023/06/21 01:00:53;;;;;;;15.40;10.40;;;;;;;20.43;61.59;96710.40;109078;1269;23274;-86
2023/06/21 01:03:26;;;;;;;11.70;10.30;;;;;;;20.44;61.62;96705.50;109085;1266;22555;-86
2023/06/21 01:06:11;;;;;;;11.50;10.30;;;;;;;20.47;61.49;96705.64;108795;1267;311385;-87
2023/06/21 01:08:53;;;;;;;11.00;9.90;;;;;;;20.49;61.47;96702.10;109104;1272;22518;-87
2023/06/21 01:11:30;;;;;;;11.10;10.00;;;;;;;20.51;61.52;96699.22;109059;1272;26010;-87
2023/06/21 01:14:18;;;;;;;11.30;10.20;;;;;;;20.51;61.45;96696.30;109123;1268;22613;-86
2023/06/21 01:16:54;;;;;;;10.60;9.60;;;;;;;20.55;61.47;96700.73;109101;1272;22528;-87
2023/06/21 01:19:45;;;;;;;11.40;10.30;;;;;;;20.56;61.39;96698.70;109085;1272;22642;-87
2023/06/21 01:22:37;;;;;;;12.00;10.20;;;;;;;20.60;61.43;96691.20;109043;1272;22511;-87
2023/06/21 01:25:31;;;;;;;11.00;9.90;;;;;;;20.63;61.59;96686.71;109036;1273;65063;-87
2023/06/21 01:28:34;;;;;;;10.70;9.30;;;;;;;20.62;61.56;96681.77;109118;1269;25133;-87
2023/06/21 01:31:09;;;;;;;10.90;9.70;;;;;;;20.63;61.54;96677.41;109116;1269;22512;-87
2023/06/21 01:33:43;;;;;;;11.00;9.80;;;;;;;20.65;61.51;96678.69;109147;1273;22657;-87
2023/06/21 01:36:16;;;;;;;11.10;9.90;;;;;;;20.67;61.77;96679.13;109021;1272;48336;-86
2023/06/21 01:38:49;;;;;;;10.60;9.60;;;;;;;20.68;61.85;96680.25;109107;1272;22508;-87
2023/06/21 01:41:23;;;;;;;11.90;10.10;;;;;;;20.71;61.85;96681.34;109075;1267;23875;-87
2023/06/21 01:43:55;;;;;;;10.30;9.30;;;;;;;20.74;61.86;96684.73;109045;1269;22541;-86
2023/06/21 01:46:29;;;;;;;10.30;9.20;;;;;;;20.80;61.94;96688.80;109058;1269;52785;-87
2023/06/21 01:49:03;;;;;;;10.10;9.10;;;;;;;20.83;61.97;96692.60;109097;1272;22546;-87
2023/06/21 01:51:38;;;;;;;10.60;9.50;;;;;;;20.88;61.92;96693.52;109090;1272;22511;-87
2023/06/21 01:54:11;;;;;;;10.70;9.60;;;;;;;20.90;61.80;96693.25;109085;1272;22633;-87
2023/06/21 01:56:46;;;;;;;11.10;9.90;;;;;;;20.91;61.94;96694.51;109074;1269;65213;-87
2023/06/21 01:59:20;;;;;;;10.80;9.80;;;;;;;20.91;61.78;96696.51;109103;1272;25233;-87
2023/06/21 02:01:56;;;;;;;10.80;9.70;;;;;;;20.91;61.75;96695.89;109090;1265;22607;-87
2023/06/21 02:04:33;;;;;;;11.30;10.20;;;;;;;20.89;61.70;96699.26;109078;1252;23881;-87
2023/06/21 02:07:08;;;;;;;10.40;9.40;;;;;;;20.89;61.76;96698.24;109104;1272;22704;-87
2023/06/21 02:09:40;;;;;;;11.40;10.30;;;;;;;20.89;61.79;96698.02;109138;1270;22561;-87
2023/06/21 02:12:13;;;;;;;10.70;9.40;;;;;;;20.90;61.86;96698.33;109110;1269;22638;-87
2023/06/21 02:14:44;;;;;;;10.90;9.80;;;;;;;20.90;61.84;96701.57;109054;1269;41779;-87
2023/06/21 02:17:16;;;;;;;11.90;10.10;;;;;;;20.89;61.86;96700.02;109081;1269;23804;-87
2023/06/21 02:19:49;;;;;;;10.90;9.80;;;;;;;20.90;61.85;96702.35;109066;1272;22518;-87
2023/06/21 02:22:21;;;;;;;12.70;10.20;;;;;;;20.89;61.85;96696.79;109026;1272;22547;-87
2023/06/21 02:24:54;;;;;;;11.90;10.10;;;;;;;20.88;61.83;96696.14;108980;1273;58765;-87
2023/06/21 02:27:26;;;;;;;10.90;9.40;;;;;;;20.90;61.83;96700.11;109080;1256;22912;-87
2023/06/21 02:29:59;;;;;;;11.10;9.80;;;;;;;20.89;61.81;96694.40;109080;1273;23536;-87
2023/06/21 02:32:32;;;;;;;10.90;9.80;;;;;;;20.90;61.79;96692.80;109057;1273;23262;-87
2023/06/21 02:35:05;;;;;;;11.80;10.60;;;;;;;20.90;61.92;96691.64;109048;1267;34283;-87
2023/06/21 02:37:37;;;;;;;10.60;9.60;;;;;;;20.90;61.86;96680.00;109105;1266;22569;-87
2023/06/21 02:40:13;;;;;;;11.80;10.50;;;;;;;20.91;61.75;96670.26;109179;1267;22563;-86
2023/06/21 02:42:44;;;;;;;10.60;9.50;;;;;;;20.91;61.81;96663.65;109261;1266;23161;-87
2023/06/21 02:45:16;;;;;;;10.90;9.80;;;;;;;20.92;61.65;96664.27;109081;1272;44672;-87
2023/06/21 02:47:48;;;;;;;9.90;8.80;;;;;;;20.91;61.70;96669.42;109070;1270;22514;-86
2023/06/21 02:50:20;;;;;;;12.10;10.80;;;;;;;20.92;61.81;96673.30;109101;1272;22519;-86
2023/06/21 02:52:53;;;;;;;12.00;10.00;;;;;;;20.97;61.79;96676.14;109071;1272;22543;-86
2023/06/21 02:55:24;;;;;;;10.80;9.70;;;;;;;20.98;61.69;96680.41;109026;1269;55633;-86
2023/06/21 02:57:56;;;;;;;10.70;9.60;;;;;;;20.99;61.70;96681.91;109089;1269;24118;-86
2023/06/21 03:00:31;;;;;;;11.70;10.50;;;;;;;21.03;61.71;96687.16;109079;1273;22515;-87
2023/06/21 03:03:03;;;;;;;11.40;9.80;;;;;;;21.05;61.70;96687.05;109106;1263;23912;-86
2023/06/21 03:05:36;;;;;;;10.00;9.00;;;;;;;21.11;61.75;96696.29;109056;1269;31917;-86
2023/06/21 03:08:08;;;;;;;10.20;9.10;;;;;;;21.15;61.63;96699.11;109081;1267;22561;-87
2023/06/21 03:10:40;;;;;;;11.20;10.10;;;;;;;21.16;61.53;96703.69;109097;1269;22561;-86
2023/06/21 03:13:11;;;;;;;11.20;9.50;;;;;;;21.18;61.59;96708.35;109084;1266;22537;-87
2023/06/21 03:15:43;;;;;;;11.00;9.90;;;;;;;21.21;61.49;96712.58;109008;1272;37821;-86
2023/06/21 03:18:18;;;;;;;11.40;9.80;;;;;;;21.23;61.48;96718.20;109023;1273;22513;-86
2023/06/21 03:20:53;;;;;;;10.50;9.40;;;;;;;21.23;61.53;96720.88;109064;1274;22682;-86
2023/06/21 03:23:26;;;;;;;10.20;9.20;;;;;;;21.23;61.58;96720.04;109059;1273;22530;-86
2023/06/21 03:25:58;;;;;;;11.50;9.90;;;;;;;21.23;61.46;96724.45;109060;1255;47930;-87
2023/06/21 03:28:30;;;;;;;10.90;9.70;;;;;;;21.25;61.49;96722.98;109062;1272;22516;-86
2023/06/21 03:31:02;;;;;;;10.70;9.40;;;;;;;21.24;61.34;96722.06;109134;1272;22519;-86
2023/06/21 03:33:34;;;;;;;10.80;9.70;;;;;;;21.21;61.55;96722.44;109085;1267;23407;-86
2023/06/21 03:36:06;;;;;;;10.80;9.80;;;;;;;21.19;61.66;96725.70;109051;1272;57465;-86
2023/06/21 03:38:39;;;;;;;10.50;9.50;;;;;;;21.17;61.72;96726.06;109108;1273;25277;-86
2023/06/21 03:41:11;;;;;;;13.20;10.50;;;;;;;21.17;61.74;96721.59;109087;1272;22686;-86
2023/06/21 03:43:43;;;;;;;10.60;9.50;;;;;;;21.19;61.63;96727.94;109044;1272;22511;-87
2023/06/21 03:46:14;;;;;;;11.10;10.10;;;;;;;21.18;61.75;96726.62;109037;1272;41182;-87
2023/06/21 03:48:48;;;;;;;10.70;9.70;;;;;;;21.19;61.78;96727.33;109066;1250;22522;-87
2023/06/21 03:51:20;;;;;;;10.40;9.30;;;;;;;21.22;61.80;96724.73;109087;1267;24240;-86
2023/06/21 03:53:52;;;;;;;11.20;10.10;;;;;;;21.27;61.76;96720.73;109066;1272;22511;-86
2023/06/21 03:56:25;;;;;;;11.40;10.20;;;;;;;21.33;61.83;96724.44;109065;1270;59128;-86
2023/06/21 03:58:56;;;;;;;10.50;9.50;;;;;;;21.39;61.84;96723.95;109085;1272;22567;-86
2023/06/21 04:01:28;;;;;;;10.50;9.50;;;;;;;21.44;61.61;96726.27;109092;1266;24195;-86
2023/06/21 04:04:00;;;;;;;10.20;9.10;;;;;;;21.49;61.60;96723.83;109082;1272;25281;-88
2023/06/21 04:06:31;;;;;;;10.20;8.90;;;;;;;21.54;61.44;96722.29;109038;1272;51292;-87
2023/06/21 04:09:02;;;;;;;10.90;9.80;;;;;;;21.61;61.24;96717.99;109113;1266;22594;-86
2023/06/21 04:11:33;;;;;;;10.80;9.60;;;;;;;21.68;61.18;96723.89;109103;1270;22567;-86
2023/06/21 04:14:05;;;;;;;11.40;10.20;;;;;;;21.76;61.05;96729.95;109089;1272;22525;-85
2023/06/21 04:16:37;;;;;;;10.70;9.60;;;;;;;21.84;60.87;96731.84;108995;1267;33569;-85
2023/06/21 04:19:11;;;;;;;12.20;9.80;;;;;;;21.92;60.74;96736.81;109056;1267;22698;-85
2023/06/21 04:21:43;;;;;;;9.60;8.60;;;;;;;22.00;60.60;96738.26;109069;1272;22510;-86
2023/06/21 04:24:14;;;;;;;11.70;10.10;;;;;;;22.06;60.40;96741.89;109053;1267;22518;-86
2023/06/21 04:26:47;;;;;;;11.20;9.60;;;;;;;22.12;60.35;96742.12;109059;1272;38349;-85
2023/06/21 04:29:25;;;;;;;11.80;10.10;;;;;;;22.18;60.45;96741.88;109147;1272;22553;-86
2023/06/21 04:31:59;;;;;;;12.00;9.50;;;;;;;22.22;60.65;96743.49;109141;1272;22512;-86
2023/06/21 04:34:30;;;;;;;11.10;9.70;;;;;;;22.23;60.48;96741.83;109030;1272;87602;-85
2023/06/21 04:37:05;;;;;;;11.30;9.70;;;;;;;22.25;60.42;96748.91;109079;1273;22771;-85
2023/06/21 04:39:38;;;;;;;11.70;9.20;;;;;;;22.30;60.60;96743.54;109131;1273;22515;-86
2023/06/21 04:42:10;;;;;;;10.60;9.50;;;;;;;22.31;60.18;96746.81;109094;1270;24221;-86
2023/06/21 04:44:48;;;;;;;10.80;9.70;;;;;;;22.34;60.54;96746.55;109016;1269;53971;-86
2023/06/21 04:47:24;;;;;;;11.10;10.10;;;;;;;22.41;60.37;96744.81;109061;1273;23744;-86
2023/06/21 04:49:55;;;;;;;10.70;9.60;;;;;;;22.48;60.39;96742.48;109078;1274;22522;-86
2023/06/21 04:52:26;;;;;;;10.80;9.70;;;;;;;22.56;60.22;96744.35;109036;1268;22539;-85
2023/06/21 04:54:59;;;;;;;11.20;9.40;;;;;;;22.62;60.11;96742.92;108954;1274;51686;-86
2023/06/21 04:57:31;;;;;;;10.80;9.70;;;;;;;22.67;59.88;96744.46;109007;1267;22635;-86
2023/06/21 05:00:06;;;;;;;10.80;9.80;;;;;;;22.71;59.93;96745.48;109052;1270;22628;-87
2023/06/21 05:02:38;;;;;;;10.70;9.60;;;;;;;22.66;59.74;96747.13;109013;1256;22511;-86
2023/06/21 05:05:11;;;;;;;10.70;9.60;;;;;;;22.56;59.55;96745.60;109014;1275;43208;-87
2023/06/21 05:07:42;;;;;;;10.60;9.60;;;;;;;22.45;59.70;96747.83;109042;1272;24254;-86
2023/06/21 05:10:14;;;;;;;11.20;9.60;;;;;;;22.42;59.99;96756.95;109044;1274;22522;-87
2023/06/21 05:12:47;;;;;;;10.90;9.80;;;;;;;22.42;60.22;96757.56;109000;1266;22515;-84
2023/06/21 05:15:19;;;;;;;11.00;10.00;;;;;;;22.45;60.56;96752.39;108985;1267;51295;-84
2023/06/21 05:17:50;;;;;;;10.90;9.80;;;;;;;22.51;60.77;96747.55;109066;1267;22585;-84
2023/06/21 05:20:22;;;;;;;10.50;9.50;;;;;;;22.55;60.57;96740.24;109048;1275;22512;-84
2023/06/21 05:22:55;;;;;;;11.00;9.60;;;;;;;22.57;60.50;96744.54;109062;1270;22604;-86
2023/06/21 05:25:27;;;;;;;10.70;9.60;;;;;;;22.71;60.48;96739.98;109030;1271;32123;-88
2023/06/21 05:27:59;;;;;;;11.40;10.30;;;;;;;23.14;60.62;96739.04;109124;1269;22566;-88
2023/06/21 05:30:30;;;;;;;10.70;9.60;;;;;;;23.57;59.81;96743.58;109152;1274;22545;-88
2023/06/21 05:33:02;;;;;;;10.30;9.30;;;;;;;24.31;59.64;96740.04;109111;1273;26626;-87
2023/06/21 05:35:33;;;;;;;10.70;9.20;;;;;;;25.20;58.66;96744.39;109111;1273;23302;-88
2023/06/21 05:38:04;;;;;;;9.90;9.00;;;;;;;25.65;56.71;96749.09;109090;1273;22560;-88
2023/06/21 05:40:35;;;;;;;10.60;9.20;;;;;;;25.70;55.88;96752.09;109027;1269;25454;-87
2023/06/21 05:43:06;;;;;;;10.40;9.30;;;;;;;26.22;55.41;96753.80;109082;1269;22524;-87
2023/06/21 05:45:40;;;;;;;10.60;9.50;;;;;;;26.96;54.87;96755.09;109041;1274;22515;-88
2023/06/21 05:48:11;;;;;;;9.60;8.70;;;;;;;27.82;53.76;96753.30;109114;1269;22561;-87
2023/06/21 05:50:45;;;;;;;10.00;9.00;;;;;;;28.19;52.34;96754.36;109155;1270;22624;-88
2023/06/21 05:53:18;;;;;;;10.20;8.80;;;;;;;28.23;51.96;96757.80;109115;1273;22519;-87
2023/06/21 05:55:49;;;;;;;10.70;9.50;;;;;;;28.32;51.50;96759.23;109066;1266;29719;-87
2023/06/21 05:58:22;;;;;;;9.90;8.90;;;;;;;28.31;50.86;96763.12;109190;1270;23704;-88
2023/06/21 06:00:54;;;;;;;12.00;9.40;;;;;;;28.10;50.13;96765.89;109128;1273;23727;-88
2023/06/21 06:03:25;;;;;;;15.90;10.10;;;;;;;27.93;49.55;96769.45;109089;1273;22563;-88
2023/06/21 06:05:57;;;;;;;9.90;9.00;;;;;;;27.72;49.51;96771.20;109064;1266;37149;-88
2023/06/21 06:08:28;;;;;;;10.40;9.40;;;;;;;27.60;49.83;96775.66;109065;1267;23409;-89
2023/06/21 06:10:59;;;;;;;10.50;9.40;;;;;;;27.74;49.95;96771.82;109157;1266;25253;-88
2023/06/21 06:13:30;;;;;;;10.50;9.30;;;;;;;27.68;49.32;96767.30;109249;1273;23878;-89
2023/06/21 06:16:09;;;;;;;10.20;9.30;;;;;;;27.63;49.54;96772.41;109192;1267;22677;-87
2023/06/21 06:18:52;;;;;;;9.00;8.20;;;;;;;27.46;49.85;96774.77;109239;1267;22745;-87
2023/06/21 06:21:33;;;;;;;10.70;9.50;;;;;;;27.92;50.54;96773.48;109985;1267;22522;-88
2023/06/21 06:24:05;;;;;;;10.00;9.10;;;;;;;29.11;49.89;96774.13;109144;1270;23257;-87
2023/06/21 06:26:37;;;;;;;10.80;9.20;;;;;;;29.89;48.92;96767.45;109022;1274;22540;-87
2023/06/21 06:29:08;;;;;;;9.40;8.40;;;;;;;30.63;48.29;96767.20;109074;1268;23376;-88
2023/06/21 06:31:39;;;;;;;10.40;9.40;;;;;;;31.09;47.12;96765.72;109081;1267;26611;-88
2023/06/21 06:34:10;;;;;;;9.80;8.80;;;;;;;31.17;46.21;96765.79;109086;1267;22542;-85
2023/06/21 06:36:42;;;;;;;9.50;8.50;;;;;;;30.94;45.57;96768.95;109035;1270;25023;-86
2023/06/21 06:39:14;;;;;;;9.70;8.80;;;;;;;30.55;45.41;96772.67;109072;1267;25281;-89
2023/06/21 06:41:46;;;;;;;11.10;8.50;;;;;;;30.11;45.75;96771.14;109024;1267;23171;-87
2023/06/21 06:44:24;;;;;;;11.20;8.70;;;;;;;29.98;45.78;96766.70;109028;1273;26130;-86
2023/06/21 06:46:57;;;;;;;9.90;8.70;;;;;;;29.95;46.01;96768.10;109071;1272;22635;-87
2023/06/21 06:49:31;;;;;;;10.20;9.20;;;;;;;29.89;45.92;96764.26;109135;1266;22522;-87
2023/06/21 06:52:11;;;;;;;9.20;8.30;;;;;;;29.73;46.05;96765.52;109078;1268;22520;-87
2023/06/21 06:54:45;;;;;;;9.60;8.70;;;;;;;29.68;46.17;96762.42;107065;1266;2670545;-88
2023/06/21 06:57:20;;;;;;;10.30;9.30;;;;;;;29.47;46.54;96759.02;109065;1273;22564;-88
2023/06/21 06:59:54;;;;;;;9.70;8.80;;;;;;;29.40;46.60;96757.08;109064;1272;22523;-87
2023/06/21 07:02:26;;;;;;;10.20;9.20;;;;;;;29.34;46.62;96761.17;109151;1267;23013;-88
2023/06/21 07:04:57;;;;;;;10.00;9.00;;;;;;;29.38;46.83;96757.09;109056;1273;59992;-88
2023/06/21 07:07:28;;;;;;;10.10;8.90;;;;;;;29.40;46.89;96757.23;109089;1273;25044;-88
2023/06/21 07:09:59;;;;;;;10.40;8.80;;;;;;;29.44;46.61;96752.79;109150;1267;22556;-88
2023/06/21 07:12:34;;;;;;;9.10;8.20;;;;;;;29.51;46.69;96752.84;109097;1273;22518;-87
2023/06/21 07:15:08;;;;;;;11.50;9.10;;;;;;;29.33;46.38;96750.64;109075;1267;61869;-87
2023/06/21 07:17:40;;;;;;;10.40;8.60;;;;;;;29.13;46.77;96752.52;109096;1272;23009;-87
2023/06/21 07:20:13;;;;;;;9.90;8.90;;;;;;;29.14;46.63;96752.30;109166;1269;22529;-87
2023/06/21 07:22:44;;;;;;;10.80;9.10;;;;;;;29.18;47.03;96749.15;109106;1267;22558;-87
2023/06/21 07:25:21;;;;;;;11.40;9.10;;;;;;;29.26;47.28;96748.80;109069;1267;28156;-87
2023/06/21 07:27:52;;;;;;;12.20;9.30;;;;;;;29.36;47.08;96746.56;109092;1267;22513;-87
2023/06/21 07:30:23;;;;;;;11.60;8.70;;;;;;;29.24;46.77;96746.39;109071;1267;22556;-87
2023/06/21 07:32:55;;;;;;;9.20;8.30;;;;;;;29.08;46.62;96744.81;109110;1270;25290;-87
2023/06/21 07:35:26;;;;;;;10.80;8.90;;;;;;;29.08;46.73;96745.29;109030;1272;52440;-87
2023/06/21 07:37:58;;;;;;;9.60;8.70;;;;;;;28.96;46.87;96743.30;109090;1266;22513;-87
2023/06/21 07:40:29;;;;;;;10.60;8.90;;;;;;;28.70;46.94;96744.59;109119;1272;22550;-87
2023/06/21 07:43:01;;;;;;;9.70;8.70;;;;;;;28.51;47.56;96746.49;109071;1272;22525;-87
2023/06/21 07:45:33;;;;;;;9.80;8.20;;;;;;;28.41;47.04;96747.13;109079;1272;50295;-87
2023/06/21 07:48:07;;;;;;;9.30;8.40;;;;;;;28.31;47.17;96750.25;109081;1272;26616;-88
2023/06/21 07:50:38;;;;;;;10.00;8.60;;;;;;;28.17;46.99;96748.74;109095;1266;26620;-87
2023/06/21 07:53:12;;;;;;;9.80;8.80;;;;;;;28.19;47.34;96745.48;109124;1272;22519;-86
2023/06/21 07:55:43;;;;;;;10.30;8.80;;;;;;;28.18;47.72;96746.11;109207;1273;41196;-87
2023/06/21 07:58:15;;;;;;;9.80;8.90;;;;;;;28.15;48.04;96749.13;109223;1265;22543;-86
2023/06/21 08:00:46;;;;;;;9.20;8.00;;;;;;;28.16;48.11;96752.48;109529;1267;22718;-86
2023/06/21 08:03:18;;;;;;;10.30;8.90;;;;;;;28.22;48.15;96750.39;109134;1273;22519;-86
2023/06/21 08:05:49;;;;;;;10.80;9.00;;;;;;;28.21;48.10;96748.91;109048;1267;38964;-86
2023/06/21 08:08:21;;;;;;;9.50;8.30;;;;;;;28.22;48.01;96750.46;109010;1273;22535;-84
2023/06/21 08:10:52;;;;;;;9.50;8.60;;;;;;;28.18;47.95;96752.66;109084;1270;22524;-84
2023/06/21 08:13:26;;;;;;;11.90;9.50;;;;;;;28.37;48.58;96753.13;109037;1267;23914;-83
2023/06/21 08:15:57;;;;;;;9.70;8.20;;;;;;;28.82;48.52;96750.11;109031;1273;49050;-83
2023/06/21 08:18:31;;;;;;;10.50;8.30;;;;;;;29.25;47.89;96753.95;109137;1269;24060;-84
2023/06/21 08:21:03;;;;;;;9.60;8.70;;;;;;;29.40;46.91;96753.02;109105;1265;22518;-84
2023/06/21 08:23:36;;;;;;;10.10;8.20;;;;;;;29.57;46.71;96758.36;109094;1272;22547;-84
2023/06/21 08:26:08;;;;;;;10.00;9.00;;;;;;;29.85;46.36;96756.55;109114;1266;39286;-84
2023/06/21 08:28:41;;;;;;;9.80;8.80;;;;;;;30.08;45.98;96760.69;109089;1272;22517;-83
2023/06/21 08:31:14;;;;;;;9.40;8.40;;;;;;;30.19;45.60;96759.85;109119;1269;22545;-83
2023/06/21 08:33:45;;;;;;;9.50;8.10;;;;;;;30.30;45.20;96757.95;109120;1266;22550;-83
2023/06/21 08:36:17;;;;;;;8.80;7.90;;;;;;;30.49;45.11;96755.91;109069;1272;71933;-83
2023/06/21 08:38:48;;;;;;;8.40;7.60;;;;;;;30.59;44.44;96752.54;109119;1272;25423;-84
2023/06/21 08:41:22;;;;;;;8.80;8.00;;;;;;;30.60;44.54;96750.48;109129;1266;23983;-83
2023/06/21 08:43:53;;;;;;;9.20;8.30;;;;;;;30.46;44.34;96752.34;109100;1272;24289;-83
2023/06/21 08:46:30;;;;;;;10.50;8.10;;;;;;;30.33;44.26;96751.13;109058;1269;57846;-83
2023/06/21 08:49:05;;;;;;;8.70;7.70;;;;;;;30.19;44.29;96756.41;109135;1272;22526;-83
2023/06/21 08:51:41;;;;;;;12.20;8.20;;;;;;;30.07;44.29;96759.92;109173;1272;24045;-83
2023/06/21 08:54:17;;;;;;;8.40;7.60;;;;;;;29.96;44.39;96757.16;109141;1272;22507;-83
2023/06/21 08:56:54;;;;;;;8.90;8.00;;;;;;;29.87;44.26;96758.95;109081;1267;35790;-83
2023/06/21 08:59:33;;;;;;;9.20;8.20;;;;;;;29.73;44.59;96763.19;109078;1266;25303;-83
2023/06/21 09:02:10;;;;;;;9.40;7.20;;;;;;;29.67;44.31;96761.11;109059;1270;23538;-86
2023/06/21 09:04:49;;;;;;;8.10;7.30;;;;;;;29.58;44.28;96759.05;107569;1266;2030873;-87
2023/06/21 09:07:22;;;;;;;9.00;8.10;;;;;;;29.47;43.81;96753.95;109063;1263;25938;-86
2023/06/21 09:09:55;;;;;;;9.30;7.60;;;;;;;29.43;43.78;96754.19;109107;1267;24269;-86
2023/06/21 09:12:31;;;;;;;8.70;7.70;;;;;;;29.38;43.58;96744.52;109088;1270;22557;-86
2023/06/21 09:15:04;;;;;;;9.20;8.30;;;;;;;29.35;44.19;96743.22;109083;1270;63003;-85
2023/06/21 09:17:36;;;;;;;9.60;7.50;;;;;;;29.49;44.61;96740.75;109092;1273;22536;-86
2023/06/21 09:20:10;;;;;;;8.70;7.80;;;;;;;29.44;43.77;96738.73;109169;1267;22609;-86
2023/06/21 09:22:43;;;;;;;10.90;7.90;;;;;;;29.29;43.76;96742.94;109076;1267;22673;-87
2023/06/21 09:25:15;;;;;;;9.90;8.00;;;;;;;29.21;43.99;96741.80;109051;1273;57743;-86
2023/06/21 09:27:47;;;;;;;8.70;7.80;;;;;;;29.10;43.80;96739.51;109150;1270;22567;-87
2023/06/21 09:30:19;;;;;;;8.90;8.00;;;;;;;28.93;43.80;96743.31;109154;1266;26512;-86
2023/06/21 09:32:51;;;;;;;8.80;7.90;;;;;;;28.92;44.54;96744.95;109174;1272;25425;-87
2023/06/21 09:35:23;;;;;;;8.40;7.60;;;;;;;29.04;45.28;96748.73;109132;1269;34404;-87
2023/06/21 09:37:54;;;;;;;8.90;8.00;;;;;;;29.16;45.06;96753.30;109125;1272;23173;-86
2023/06/21 09:40:25;;;;;;;9.30;8.10;;;;;;;29.18;44.75;96754.69;109190;1272;22566;-86
2023/06/21 09:42:56;;;;;;;8.60;7.80;;;;;;;29.19;44.66;96759.91;109125;1271;22551;-87
2023/06/21 09:45:28;;;;;;;9.50;8.10;;;;;;;29.21;44.42;96758.80;109151;1269;25254;-86
2023/06/21 09:48:00;;;;;;;8.60;7.60;;;;;;;29.21;44.22;96756.86;109204;1272;22570;-86
2023/06/21 09:50:37;;;;;;;8.80;7.90;;;;;;;29.13;44.32;96758.05;109163;1266;22614;-86
2023/06/21 09:53:12;;;;;;;9.80;8.10;;;;;;;29.07;44.07;96758.55;109196;1266;24163;-86
2023/06/21 09:55:48;;;;;;;8.90;8.00;;;;;;;29.01;44.72;96755.00;109111;1266;22521;-86
2023/06/21 09:58:19;;;;;;;10.80;8.20;;;;;;;28.94;44.86;96758.42;109105;1266;22519;-83
2023/06/21 10:00:54;;;;;;;11.30;8.50;;;;;;;28.82;45.38;96759.36;109142;1266;22508;-83
2023/06/21 10:03:26;;;;;;;9.50;8.50;;;;;;;28.77;45.61;96760.02;109106;1273;23536;-83
2023/06/21 10:05:59;;;;;;;10.30;8.80;;;;;;;28.70;46.22;96765.71;109074;1272;53182;-84
2023/06/21 10:08:32;;;;;;;9.70;8.70;;;;;;;28.77;47.02;96763.91;109213;1269;22682;-84
2023/06/21 10:11:04;;;;;;;9.30;8.40;;;;;;;28.78;47.33;96766.79;109188;1272;24105;-87
2023/06/21 10:13:40;;;;;;;10.80;8.40;;;;;;;28.78;47.26;96761.80;109193;1266;22524;-87
2023/06/21 10:16:20;;;;;;;10.60;8.90;;;;;;;28.77;47.53;96760.02;107802;1266;1800945;-84
2023/06/21 10:18:55;;;;;;;11.10;9.30;;;;;;;28.76;47.66;96757.05;109373;1269;22541;-84
2023/06/21 10:21:32;;;;;;;10.50;8.70;;;;;;;28.71;47.25;96758.06;109308;1266;23364;-84
2023/06/21 10:24:38;;;;;;;9.00;8.20;;;;;;;28.70;47.65;96763.29;109165;1272;23175;-84
2023/06/21 10:27:25;;;;;;;10.30;8.20;;;;;;;28.73;47.55;96760.66;109076;1273;22571;-84
2023/06/21 10:30:01;;;;;;;8.80;8.00;;;;;;;28.71;46.69;96760.64;109069;1267;22517;-84
2023/06/21 10:32:47;;;;;;;9.50;8.50;;;;;;;28.62;46.26;96762.54;109095;1273;22742;-84
2023/06/21 10:35:27;;;;;;;9.80;8.80;;;;;;;28.61;47.03;96765.73;105788;1264;4440224;-85
2023/06/21 10:38:20;;;;;;;;;;;;;;;;;;;;;
2023/06/21 10:41:04;;;;;;;10.20;8.80;;;;;;;28.66;47.48;96762.52;109144;1266;22535;-85
2023/06/21 10:47:23;;;;;;;9.20;8.40;;;;;;;28.59;47.88;96763.63;109010;1269;61742;-85
2023/06/21 10:50:06;;;;;;;10.00;8.70;;;;;;;28.63;48.58;96764.33;109123;1265;22524;-85
2023/06/21 10:52:38;;;;;;;9.00;8.20;;;;;;;28.63;48.10;96760.89;109120;1266;22878;-85
2023/06/21 10:55:13;;;;;;;10.40;9.00;;;;;;;28.59;48.13;96759.66;109044;1272;113925;-84
2023/06/21 10:57:45;;;;;;;9.80;8.70;;;;;;;28.55;47.95;96758.73;109174;1266;22519;-85
2023/06/21 11:00:19;;;;;;;9.30;8.40;;;;;;;28.51;47.96;96758.97;109189;1266;25262;-86
2023/06/21 11:03:00;;;;;;;11.40;9.20;;;;;;;28.50;48.23;96761.08;109163;1272;24213;-85
2023/06/21 11:05:34;;;;;;;9.40;8.50;;;;;;;28.50;48.50;96763.88;109073;1268;58320;-85
2023/06/21 11:08:06;;;;;;;9.80;8.70;;;;;;;28.54;48.69;96764.26;109152;1272;22549;-85
2023/06/21 11:10:46;;;;;;;9.70;8.80;;;;;;;28.55;48.08;96767.91;109175;1272;23168;-86
2023/06/21 11:13:34;;;;;;;10.10;9.10;;;;;;;28.60;48.15;96760.98;109177;1272;23212;-85
2023/06/21 11:16:17;;;;;;;9.80;8.90;;;;;;;28.71;48.22;96765.95;109092;1266;74224;-86
2023/06/21 11:18:57;;;;;;;9.70;8.80;;;;;;;28.78;47.73;96761.48;109118;1266;22526;-86
2023/06/21 11:21:46;;;;;;;9.70;8.70;;;;;;;28.82;47.42;96757.80;109201;1269;22638;-85
2023/06/21 11:24:28;;;;;;;12.50;9.30;;;;;;;28.84;47.87;96752.58;109177;1266;22558;-86
2023/06/21 11:27:03;;;;;;;10.60;9.50;;;;;;;28.83;47.94;96752.27;109081;1267;51661;-86
2023/06/21 11:30:09;;;;;;;9.90;8.90;;;;;;;28.79;47.52;96750.65;109138;1273;22535;-86
2023/06/21 11:32:56;;;;;;;10.10;9.20;;;;;;;28.76;47.73;96747.38;109134;1273;24331;-85
2023/06/21 11:36:02;;;;;;;11.40;8.80;;;;;;;28.78;48.22;96748.31;107220;1273;2563433;-87
2023/06/21 11:38:53;;;;;;;9.70;8.80;;;;;;;28.81;48.30;96747.52;109126;1272;22524;-87
2023/06/21 11:41:55;;;;;;;9.90;9.00;;;;;;;28.78;48.09;96748.86;108966;1272;22556;-87
2023/06/21 11:44:41;;;;;;;9.30;8.40;;;;;;;28.77;48.57;96745.74;109168;1272;22521;-87
2023/06/21 11:47:33;;;;;;;10.00;9.00;;;;;;;28.77;48.91;96743.33;109010;1273;88098;-88
2023/06/21 11:50:19;;;;;;;11.40;9.30;;;;;;;28.77;49.56;96733.82;109140;1267;24171;-85
2023/06/21 11:52:53;;;;;;;10.20;9.20;;;;;;;28.80;49.95;96725.38;109132;1266;22532;-88
2023/06/21 11:55:28;;;;;;;10.10;9.20;;;;;;;28.82;50.20;96719.45;107278;1269;2358130;-89
2023/06/21 11:58:10;;;;;;;11.20;9.80;;;;;;;28.85;50.57;96716.34;109103;1266;23923;-87